BVX1 EGLL-KJFK
Flight info
| Callsign | BVX1 |
|---|---|
| Flight time | N/A |
| Altitude | 38000 |
| Route | ULTIB T420 TNT UL28 PENIL M144 BAGSO DCT DOGAL/M082F390 DCT 54N020W 53N030W 51N040W 49N050W DCT JOOPY/N0467F400 N328A TUSKY DCT PLYMM PARCH4 |
| Aircraft | B772/H-SDE2E3FGHIJ5LORVWXY/LB1D1 |
Departure
| Time | 2026-05-08 01:25 |
|---|---|
| Airport | London Heathrow Airport (EGLL) |
Arrival
| Time | N/A |
|---|---|
| Airport | John F. Kennedy International Airport (KJFK) |
| Time | Latitude | Longitude | Altitude | Speed | Heading |
|---|---|---|---|---|---|
| 2026-05-08 01:10 | 51.46959 | -0.46482 | 89 ft | 0 kts | 55° |
| 2026-05-08 01:14 | 51.46954 | -0.46493 | 89 ft | 4 kts | 55° |
| 2026-05-08 01:14 | 51.46939 | -0.46529 | 91 ft | 4 kts | 56° |
| 2026-05-08 01:14 | 51.46927 | -0.46560 | 93 ft | 4 kts | 78° |
| 2026-05-08 01:14 | 51.46931 | -0.46594 | 91 ft | 4 kts | 140° |
| 2026-05-08 01:15 | 51.46950 | -0.46616 | 92 ft | 1 kts | 145° |
| 2026-05-08 01:15 | 51.46954 | -0.46620 | 93 ft | 0 kts | 145° |
| 2026-05-08 01:18 | 51.46951 | -0.46617 | 92 ft | 1 kts | 145° |
| 2026-05-08 01:18 | 51.46934 | -0.46599 | 93 ft | 5 kts | 145° |
| 2026-05-08 01:18 | 51.46898 | -0.46558 | 92 ft | 8 kts | 143° |
| 2026-05-08 01:18 | 51.46848 | -0.46506 | 93 ft | 10 kts | 147° |
| 2026-05-08 01:19 | 51.46783 | -0.46434 | 94 ft | 13 kts | 148° |
| 2026-05-08 01:19 | 51.46693 | -0.46422 | 92 ft | 14 kts | 201° |
| 2026-05-08 01:19 | 51.46658 | -0.46566 | 96 ft | 15 kts | 268° |
| 2026-05-08 01:19 | 51.46658 | -0.46744 | 96 ft | 17 kts | 270° |
| 2026-05-08 01:20 | 51.46658 | -0.46956 | 94 ft | 21 kts | 270° |
| 2026-05-08 01:20 | 51.46657 | -0.47197 | 90 ft | 22 kts | 270° |
| 2026-05-08 01:20 | 51.46656 | -0.47399 | 88 ft | 18 kts | 270° |
| 2026-05-08 01:20 | 51.46656 | -0.47614 | 88 ft | 20 kts | 269° |
| 2026-05-08 01:21 | 51.46654 | -0.47845 | 86 ft | 21 kts | 269° |
| 2026-05-08 01:21 | 51.46653 | -0.48078 | 90 ft | 21 kts | 269° |
| 2026-05-08 01:21 | 51.46651 | -0.48311 | 92 ft | 21 kts | 270° |
| 2026-05-08 01:21 | 51.46669 | -0.48547 | 93 ft | 22 kts | 282° |
| 2026-05-08 01:22 | 51.46647 | -0.48726 | 93 ft | 10 kts | 241° |
| 2026-05-08 01:22 | 51.46616 | -0.48757 | 94 ft | 0 kts | 202° |
| 2026-05-08 01:23 | 51.46614 | -0.48758 | 90 ft | 2 kts | 203° |
| 2026-05-08 01:23 | 51.46555 | -0.48786 | 92 ft | 13 kts | 185° |
| 2026-05-08 01:24 | 51.46480 | -0.48716 | 94 ft | 15 kts | 110° |
| 2026-05-08 01:24 | 51.46478 | -0.48433 | 91 ft | 52 kts | 90° |
| 2026-05-08 01:24 | 51.46483 | -0.47386 | 89 ft | 132 kts | 89° |
| 2026-05-08 01:24 | 51.46481 | -0.45585 | 301 ft | 179 kts | 91° |
| 2026-05-08 01:25 | 51.46480 | -0.43632 | 1355 ft | 171 kts | 91° |
| 2026-05-08 01:25 | 51.46547 | -0.41698 | 2187 ft | 180 kts | 83° |
| 2026-05-08 01:25 | 51.47073 | -0.39720 | 2319 ft | 207 kts | 56° |
| 2026-05-08 01:25 | 51.48043 | -0.37926 | 2657 ft | 218 kts | 50° |
| 2026-05-08 01:26 | 51.49072 | -0.36068 | 3097 ft | 227 kts | 51° |
| 2026-05-08 01:26 | 51.50103 | -0.34141 | 3616 ft | 233 kts | 52° |
| 2026-05-08 01:26 | 51.51164 | -0.32088 | 4035 ft | 245 kts | 53° |
| 2026-05-08 01:26 | 51.52265 | -0.29853 | 4321 ft | 262 kts | 56° |
| 2026-05-08 01:27 | 51.53049 | -0.27282 | 5000 ft | 254 kts | 75° |
| 2026-05-08 01:27 | 51.53518 | -0.24494 | 5486 ft | 264 kts | 76° |
| 2026-05-08 01:27 | 51.54033 | -0.21671 | 6111 ft | 266 kts | 73° |
| 2026-05-08 01:27 | 51.54730 | -0.18840 | 5895 ft | 280 kts | 61° |
| 2026-05-08 01:28 | 51.56025 | -0.16520 | 5600 ft | 278 kts | 32° |
| 2026-05-08 01:28 | 51.57810 | -0.15753 | 5766 ft | 265 kts | 356° |
| 2026-05-08 01:28 | 51.59531 | -0.16789 | 5866 ft | 273 kts | 321° |
| 2026-05-08 01:28 | 51.60850 | -0.19005 | 5981 ft | 277 kts | 312° |
| 2026-05-08 01:29 | 51.62246 | -0.21189 | 5957 ft | 280 kts | 320° |
| 2026-05-08 01:29 | 51.63699 | -0.23161 | 5957 ft | 273 kts | 316° |
| 2026-05-08 01:29 | 51.65080 | -0.25273 | 5980 ft | 274 kts | 319° |
| 2026-05-08 01:29 | 51.66576 | -0.27138 | 5983 ft | 275 kts | 325° |
| 2026-05-08 01:30 | 51.68107 | -0.28986 | 6391 ft | 275 kts | 323° |
| 2026-05-08 01:30 | 51.69636 | -0.30841 | 7122 ft | 275 kts | 324° |
| 2026-05-08 01:30 | 51.71207 | -0.32607 | 7809 ft | 275 kts | 325° |
| 2026-05-08 01:30 | 51.72810 | -0.34298 | 8493 ft | 276 kts | 325° |
| 2026-05-08 01:31 | 51.74443 | -0.35942 | 9158 ft | 277 kts | 326° |
| 2026-05-08 01:31 | 51.76098 | -0.37559 | 9830 ft | 278 kts | 325° |
| 2026-05-08 01:31 | 51.77767 | -0.39173 | 10359 ft | 284 kts | 325° |
| 2026-05-08 01:31 | 51.79530 | -0.40876 | 10498 ft | 306 kts | 326° |
| 2026-05-08 01:32 | 51.81414 | -0.42698 | 10778 ft | 324 kts | 326° |
| 2026-05-08 01:32 | 51.83378 | -0.44611 | 11307 ft | 334 kts | 326° |
| 2026-05-08 01:32 | 51.85392 | -0.46577 | 11985 ft | 341 kts | 326° |
| 2026-05-08 01:32 | 51.87442 | -0.48580 | 12842 ft | 347 kts | 326° |
| 2026-05-08 01:33 | 51.89522 | -0.50613 | 13725 ft | 353 kts | 326° |
| 2026-05-08 01:33 | 51.91637 | -0.52685 | 14497 ft | 358 kts | 326° |
| 2026-05-08 01:33 | 51.93785 | -0.54792 | 15306 ft | 363 kts | 326° |
| 2026-05-08 01:33 | 51.95960 | -0.56920 | 16120 ft | 367 kts | 326° |
| 2026-05-08 01:34 | 51.98167 | -0.59072 | 16901 ft | 372 kts | 326° |
| 2026-05-08 01:34 | 52.00400 | -0.61250 | 17668 ft | 377 kts | 326° |
| 2026-05-08 01:34 | 52.02634 | -0.63432 | 18440 ft | 382 kts | 326° |
| 2026-05-08 01:34 | 52.04919 | -0.65667 | 19121 ft | 386 kts | 326° |
| 2026-05-08 01:35 | 52.07230 | -0.67930 | 19882 ft | 389 kts | 326° |
| 2026-05-08 01:35 | 52.09553 | -0.70208 | 20605 ft | 393 kts | 326° |
| 2026-05-08 01:35 | 52.11904 | -0.72517 | 21313 ft | 397 kts | 326° |
| 2026-05-08 01:35 | 52.14289 | -0.74866 | 22002 ft | 402 kts | 326° |
| 2026-05-08 01:36 | 52.16689 | -0.77243 | 22719 ft | 406 kts | 326° |
| 2026-05-08 01:36 | 52.19112 | -0.79647 | 23417 ft | 410 kts | 326° |
| 2026-05-08 01:36 | 52.21571 | -0.82088 | 24033 ft | 414 kts | 326° |
| 2026-05-08 01:36 | 52.24041 | -0.84542 | 24626 ft | 418 kts | 326° |
| 2026-05-08 01:37 | 52.26532 | -0.87018 | 25221 ft | 421 kts | 326° |
| 2026-05-08 01:37 | 52.29048 | -0.89512 | 25836 ft | 424 kts | 326° |
| 2026-05-08 01:37 | 52.31572 | -0.92014 | 26437 ft | 427 kts | 326° |
| 2026-05-08 01:37 | 52.34131 | -0.94555 | 26977 ft | 431 kts | 326° |
| 2026-05-08 01:38 | 52.36701 | -0.97112 | 27489 ft | 434 kts | 326° |
| 2026-05-08 01:38 | 52.39295 | -0.99696 | 28008 ft | 438 kts | 326° |
| 2026-05-08 01:38 | 52.41917 | -1.02313 | 28456 ft | 443 kts | 326° |
| 2026-05-08 01:38 | 52.44524 | -1.04917 | 28912 ft | 446 kts | 326° |
| 2026-05-08 01:39 | 52.47188 | -1.07582 | 29420 ft | 448 kts | 326° |
| 2026-05-08 01:39 | 52.49862 | -1.10266 | 29913 ft | 451 kts | 326° |
| 2026-05-08 01:39 | 52.52522 | -1.12960 | 30323 ft | 453 kts | 326° |
| 2026-05-08 01:39 | 52.55230 | -1.15713 | 30691 ft | 456 kts | 326° |
| 2026-05-08 01:40 | 52.57941 | -1.18468 | 31050 ft | 459 kts | 326° |
| 2026-05-08 01:40 | 52.60662 | -1.21222 | 31404 ft | 461 kts | 326° |
| 2026-05-08 01:40 | 52.63373 | -1.23967 | 31753 ft | 463 kts | 326° |
| 2026-05-08 01:40 | 52.66122 | -1.26753 | 32073 ft | 466 kts | 326° |
| 2026-05-08 01:41 | 52.68887 | -1.29563 | 32406 ft | 468 kts | 326° |
| 2026-05-08 01:41 | 52.71665 | -1.32391 | 32708 ft | 470 kts | 326° |
| 2026-05-08 01:41 | 52.74453 | -1.35229 | 33032 ft | 472 kts | 326° |
| 2026-05-08 01:41 | 52.77260 | -1.38087 | 33324 ft | 474 kts | 326° |
| 2026-05-08 01:42 | 52.80075 | -1.40958 | 33620 ft | 476 kts | 326° |
| 2026-05-08 01:42 | 52.82903 | -1.43846 | 33922 ft | 477 kts | 326° |
| 2026-05-08 01:42 | 52.85720 | -1.46728 | 34252 ft | 476 kts | 326° |
| 2026-05-08 01:42 | 52.88534 | -1.49612 | 34563 ft | 476 kts | 326° |
| 2026-05-08 01:43 | 52.91350 | -1.52503 | 34849 ft | 476 kts | 326° |
| 2026-05-08 01:43 | 52.94175 | -1.55409 | 35084 ft | 478 kts | 326° |
| 2026-05-08 01:43 | 52.96048 | -1.57338 | 35263 ft | 478 kts | 325° |
| 2026-05-08 01:43 | 52.98874 | -1.60252 | 35569 ft | 478 kts | 325° |
| 2026-05-08 01:44 | 53.02647 | -1.64147 | 35987 ft | 477 kts | 325° |
| 2026-05-08 01:44 | 53.04519 | -1.66084 | 36168 ft | 478 kts | 325° |
| 2026-05-08 01:44 | 53.07335 | -1.69002 | 36432 ft | 478 kts | 325° |
| 2026-05-08 01:44 | 53.11076 | -1.72896 | 36781 ft | 479 kts | 325° |
| 2026-05-08 01:45 | 53.13894 | -1.75834 | 37044 ft | 479 kts | 325° |
| 2026-05-08 01:45 | 53.16721 | -1.78786 | 37309 ft | 479 kts | 325° |
| 2026-05-08 01:45 | 53.18627 | -1.80779 | 37497 ft | 479 kts | 325° |
| 2026-05-08 01:45 | 53.21346 | -1.83949 | 37676 ft | 477 kts | 316° |
| 2026-05-08 01:46 | 53.23682 | -1.87823 | 37890 ft | 473 kts | 307° |
| 2026-05-08 01:46 | 53.25658 | -1.92229 | 38006 ft | 473 kts | 299° |
| 2026-05-08 01:46 | 53.27198 | -1.97061 | 38073 ft | 471 kts | 293° |
| 2026-05-08 01:47 | 53.30014 | -2.06907 | 38053 ft | 467 kts | 293° |
| 2026-05-08 01:47 | 53.32851 | -2.16585 | 38046 ft | 465 kts | 294° |
| 2026-05-08 01:48 | 53.36785 | -2.31357 | 38047 ft | 461 kts | 285° |
| 2026-05-08 01:48 | 53.38701 | -2.41622 | 38050 ft | 462 kts | 284° |
| 2026-05-08 01:49 | 53.40621 | -2.51938 | 38047 ft | 464 kts | 285° |
| 2026-05-08 01:49 | 53.42566 | -2.62250 | 38054 ft | 464 kts | 285° |
| 2026-05-08 01:50 | 53.44497 | -2.72492 | 38036 ft | 463 kts | 285° |
| 2026-05-08 01:50 | 53.46428 | -2.82792 | 38035 ft | 462 kts | 284° |
| 2026-05-08 01:51 | 53.48343 | -2.93080 | 38037 ft | 461 kts | 284° |